createdAt,value
2023-01-09T00:02:18.886Z,4.07
2023-01-09T00:05:04.304Z,4.07
2023-01-09T00:07:49.967Z,4.04
2023-01-09T00:10:35.271Z,4.01
2023-01-09T00:13:20.537Z,4.04
2023-01-09T00:16:07.237Z,4.06
2023-01-09T00:18:52.871Z,4.05
2023-01-09T00:21:38.407Z,4.05
2023-01-09T00:24:23.655Z,4.04
2023-01-09T00:27:08.699Z,4.05
2023-01-09T00:29:54.150Z,4.05
2023-01-09T00:32:40.270Z,4.08
2023-01-09T00:35:27.457Z,4.09
2023-01-09T00:38:12.701Z,4.06
2023-01-09T00:40:59.433Z,4.08
2023-01-09T00:43:54.533Z,4.12
2023-01-09T00:46:46.364Z,4.16
2023-01-09T00:49:36.919Z,4.18
2023-01-09T00:52:22.285Z,4.16
2023-01-09T00:55:12.324Z,4.15
2023-01-09T00:57:57.312Z,4.17
2023-01-09T01:00:42.488Z,4.17
2023-01-09T01:03:28.157Z,4.20
2023-01-09T01:06:35.554Z,4.20
2023-01-09T01:09:20.619Z,4.14
2023-01-09T01:12:06.468Z,4.14
2023-01-09T01:14:52.596Z,4.11
2023-01-09T01:17:39.384Z,4.14
2023-01-09T01:20:24.908Z,4.14
2023-01-09T01:23:10.512Z,4.13
2023-01-09T01:25:55.544Z,4.10
2023-01-09T01:28:41.176Z,4.06
2023-01-09T01:31:26.136Z,4.08
2023-01-09T01:34:11.471Z,4.09
2023-01-09T01:36:56.571Z,4.11
2023-01-09T01:39:42.163Z,4.12
2023-01-09T01:42:27.731Z,4.11
2023-01-09T01:45:16.483Z,4.12
2023-01-09T01:48:07.727Z,4.16
2023-01-09T01:51:00.348Z,4.15
2023-01-09T01:53:50.807Z,4.12
2023-01-09T01:56:41.773Z,4.12
2023-01-09T01:59:36.948Z,4.16
2023-01-09T02:02:28.348Z,4.18
2023-01-09T02:05:14.689Z,4.19
2023-01-09T02:07:59.659Z,4.14
2023-01-09T02:10:45.651Z,4.13
2023-01-09T02:13:33.970Z,4.13
2023-01-09T02:16:26.151Z,4.12
2023-01-09T02:19:39.600Z,4.14
2023-01-09T02:22:40.481Z,4.17
2023-01-09T02:26:03.699Z,4.13
2023-01-09T02:29:04.671Z,4.13
2023-01-09T02:32:01.759Z,4.13
2023-01-09T02:35:17.610Z,4.16
2023-01-09T02:38:21.779Z,4.16
2023-01-09T02:41:12.827Z,4.13
2023-01-09T02:44:19.932Z,4.12
2023-01-09T02:47:28.702Z,4.17
2023-01-09T02:50:22.309Z,4.15
2023-01-09T02:53:42.076Z,4.17
2023-01-09T02:57:11.092Z,4.14
2023-01-09T02:59:56.269Z,4.15
2023-01-09T03:03:03.289Z,4.22
2023-01-09T03:05:59.891Z,4.24
2023-01-09T03:08:49.599Z,4.26
2023-01-09T03:11:41.061Z,4.25
2023-01-09T03:14:29.686Z,4.28
2023-01-09T03:17:21.938Z,4.28
2023-01-09T03:20:09.713Z,4.22
2023-01-09T03:22:56.337Z,4.25
2023-01-09T03:25:41.646Z,4.22
2023-01-09T03:28:30.100Z,4.23
2023-01-09T03:31:16.157Z,4.25
2023-01-09T03:34:01.351Z,4.23
2023-01-09T03:36:46.606Z,4.22
2023-01-09T03:39:32.590Z,4.21
2023-01-09T03:42:18.220Z,4.19
2023-01-09T03:45:03.839Z,4.17
2023-01-09T03:47:49.051Z,4.17
2023-01-09T03:50:34.913Z,4.18
2023-01-09T03:53:21.670Z,4.20
2023-01-09T03:56:07.322Z,4.20
2023-01-09T03:58:53.083Z,4.16
2023-01-09T04:01:39.220Z,4.17
2023-01-09T04:04:24.638Z,4.22
2023-01-09T04:07:10.223Z,4.19
2023-01-09T04:09:55.108Z,4.17
2023-01-09T04:12:39.969Z,4.19
2023-01-09T04:15:25.214Z,4.22
2023-01-09T04:18:10.508Z,4.25
2023-01-09T04:20:55.653Z,4.23
2023-01-09T04:23:41.352Z,4.18
2023-01-09T04:26:26.467Z,4.20
2023-01-09T04:29:11.779Z,4.19
2023-01-09T04:31:57.390Z,4.16
2023-01-09T04:34:42.463Z,4.20
2023-01-09T04:37:27.859Z,4.21
2023-01-09T04:40:13.545Z,4.23
2023-01-09T04:42:58.603Z,4.21
2023-01-09T04:45:47.138Z,4.20
2023-01-09T04:48:32.398Z,4.25
2023-01-09T04:51:17.726Z,4.23
2023-01-09T04:54:03.624Z,4.27
2023-01-09T04:56:49.844Z,4.28
2023-01-09T04:59:35.236Z,4.30
2023-01-09T05:02:20.270Z,4.35
2023-01-09T05:05:06.356Z,4.41
2023-01-09T05:07:51.537Z,4.47
2023-01-09T05:10:36.629Z,4.55
2023-01-09T05:13:22.221Z,4.51
2023-01-09T05:16:08.265Z,4.54
2023-01-09T05:18:56.684Z,4.56
2023-01-09T05:21:42.114Z,4.57
2023-01-09T05:24:27.679Z,4.56
2023-01-09T05:27:13.067Z,4.60
2023-01-09T05:29:58.890Z,4.62
2023-01-09T05:34:24.489Z,4.64
2023-01-09T05:37:11.364Z,4.64
2023-01-09T05:39:59.400Z,4.64
2023-01-09T05:43:03.524Z,4.62
2023-01-09T05:45:50.644Z,4.63
2023-01-09T07:03:20.051Z,5.01
2023-01-09T07:06:31.187Z,5.00
2023-01-09T07:09:18.077Z,4.99
2023-01-09T07:12:05.368Z,4.95
2023-01-09T07:15:20.414Z,4.97
2023-01-09T07:22:59.569Z,4.97
2023-01-09T07:26:02.695Z,4.91
2023-01-09T07:32:40.641Z,5.00
2023-01-09T07:35:29.024Z,5.02
2023-01-09T07:42:41.418Z,5.04
2023-01-09T07:45:29.063Z,5.02
2023-01-09T07:56:26.276Z,5.11
2023-01-09T08:00:07.702Z,5.16
2023-01-09T08:02:56.445Z,5.22
2023-01-09T08:06:26.573Z,5.27
2023-01-09T08:10:06.226Z,5.37
2023-01-09T08:12:53.520Z,5.45
2023-01-09T08:15:43.905Z,5.50
2023-01-09T08:19:14.619Z,5.54
2023-01-09T08:29:08.205Z,5.64
2023-01-09T08:32:18.870Z,5.60
2023-01-09T08:35:33.418Z,5.55
2023-01-09T08:38:55.210Z,5.59
2023-01-09T08:42:32.868Z,5.64
2023-01-09T08:49:06.096Z,5.80
2023-01-09T08:51:57.904Z,5.81
2023-01-09T08:54:53.170Z,5.86
2023-01-09T08:58:04.676Z,5.92
2023-01-09T09:01:25.084Z,5.95
2023-01-09T09:12:19.069Z,5.76
2023-01-09T09:15:45.711Z,5.80
2023-01-09T09:23:29.901Z,5.81
2023-01-09T09:29:14.828Z,5.89
2023-01-09T09:44:52.678Z,5.97
2023-01-09T09:48:42.650Z,5.99
2023-01-09T09:51:41.290Z,6.02
2023-01-09T09:55:08.866Z,6.06
2023-01-09T11:02:38.397Z,6.18
2023-01-09T11:13:41.166Z,5.96
2023-01-09T11:16:46.354Z,5.89
2023-01-09T11:20:13.632Z,5.87
2023-01-09T11:24:06.722Z,5.90
2023-01-09T11:27:46.765Z,5.91
2023-01-09T11:31:33.404Z,5.89
2023-01-09T11:35:26.056Z,5.91
2023-01-09T11:38:53.546Z,5.93
2023-01-09T11:41:41.058Z,5.95
2023-01-09T11:44:34.603Z,5.98
2023-01-09T11:47:38.858Z,6.05
2023-01-09T11:50:48.770Z,6.04
2023-01-09T11:54:18.265Z,6.06
2023-01-09T11:57:05.252Z,6.05
2023-01-09T12:00:34.867Z,6.06
2023-01-09T12:04:10.977Z,6.03
2023-01-09T12:08:27.128Z,6.07
2023-01-09T12:11:44.672Z,6.06
2023-01-09T12:15:10.949Z,6.07
2023-01-09T12:22:34.658Z,6.17
2023-01-09T12:30:59.320Z,6.20
2023-01-09T12:34:52.668Z,6.27
2023-01-09T12:49:15.338Z,6.45
2023-01-09T12:53:00.466Z,6.50
2023-01-09T13:04:05.625Z,6.54
2023-01-09T13:10:50.561Z,6.61
2023-01-09T13:14:21.525Z,6.61
2023-01-09T13:18:06.178Z,6.65
2023-01-09T13:55:36.810Z,6.68
2023-01-09T14:29:49.186Z,6.93
2023-01-09T14:40:18.452Z,6.95
2023-01-09T15:02:05.746Z,6.99
2023-01-09T15:15:18.704Z,7.09
2023-01-09T15:19:01.743Z,7.12
2023-01-09T15:22:40.643Z,7.15
2023-01-09T15:26:00.548Z,7.15
2023-01-09T15:29:28.430Z,7.18
2023-01-09T15:36:03.065Z,7.19
2023-01-09T15:39:44.222Z,7.22
2023-01-09T15:43:20.199Z,7.21
2023-01-09T15:47:19.059Z,7.27
2023-01-09T15:50:31.213Z,7.30
2023-01-09T15:57:30.059Z,7.36
2023-01-09T16:18:56.749Z,7.34
2023-01-09T16:33:48.270Z,7.42
2023-01-09T16:40:51.705Z,7.43
2023-01-09T16:44:35.753Z,7.43
2023-01-09T16:55:14.998Z,7.38
2023-01-09T16:59:18.891Z,7.37
2023-01-09T17:02:59.180Z,7.41
2023-01-09T17:10:29.014Z,7.38
2023-01-09T17:46:00.386Z,7.43
2023-01-09T17:49:46.946Z,7.42
2023-01-09T17:57:53.966Z,7.40
2023-01-09T18:01:50.332Z,7.35
2023-01-09T18:12:55.166Z,7.33
2023-01-09T18:16:48.479Z,7.36
2023-01-09T18:24:20.170Z,7.35
2023-01-09T18:27:36.155Z,7.34
2023-01-09T18:31:29.604Z,7.34
2023-01-09T18:38:30.338Z,7.33
2023-01-09T18:41:26.451Z,7.38
2023-01-09T18:44:13.981Z,7.38
2023-01-09T18:47:02.683Z,7.40
2023-01-09T18:53:50.173Z,7.42
2023-01-09T18:56:46.940Z,7.49
2023-01-09T18:59:39.006Z,7.48
2023-01-09T19:02:27.202Z,7.49
2023-01-09T19:05:17.795Z,7.53
2023-01-09T19:08:07.386Z,7.53
2023-01-09T19:11:35.031Z,7.55
2023-01-09T19:14:22.866Z,7.54
2023-01-09T19:17:19.458Z,7.50
2023-01-09T19:24:30.123Z,7.53
2023-01-09T19:27:21.650Z,7.61
2023-01-09T19:30:10.519Z,7.61
2023-01-09T19:33:02.273Z,7.59
2023-01-09T19:35:54.795Z,7.59
2023-01-09T19:38:41.680Z,7.54
2023-01-09T19:41:30.367Z,7.58
2023-01-09T19:44:21.566Z,7.60
2023-01-09T19:47:14.200Z,7.57
2023-01-09T19:50:08.559Z,7.56
2023-01-09T19:52:56.804Z,7.58
2023-01-09T19:55:44.935Z,7.62
2023-01-09T19:58:34.815Z,7.65
2023-01-09T20:01:28.038Z,7.68
2023-01-09T20:04:18.764Z,7.72
2023-01-09T20:07:07.120Z,7.70
2023-01-09T20:09:54.098Z,7.70
2023-01-09T20:12:43.053Z,7.71
2023-01-09T20:15:31.906Z,7.69
2023-01-09T20:24:28.354Z,7.79
2023-01-09T20:27:16.695Z,7.81
2023-01-09T20:30:36.990Z,7.80
2023-01-09T20:33:45.856Z,7.81
2023-01-09T20:37:14.954Z,7.83
2023-01-09T20:40:03.526Z,7.85
2023-01-09T20:42:56.082Z,7.85
2023-01-09T20:46:28.993Z,7.76
2023-01-09T20:49:19.731Z,7.84
2023-01-09T20:52:10.904Z,7.85
2023-01-09T20:54:58.470Z,7.76
2023-01-09T20:57:45.915Z,7.73
2023-01-09T21:00:36.335Z,7.75
2023-01-09T21:03:24.680Z,7.74
2023-01-09T21:06:18.926Z,7.77
2023-01-09T21:09:07.708Z,7.73
2023-01-09T21:12:02.664Z,7.76
2023-01-09T21:15:19.352Z,7.80
2023-01-09T21:18:08.012Z,7.81
2023-01-09T21:20:55.773Z,7.83
2023-01-09T21:23:56.140Z,7.76
2023-01-09T21:26:48.843Z,7.75
2023-01-09T21:29:36.500Z,7.70
2023-01-09T21:32:25.203Z,7.64
2023-01-09T21:35:12.275Z,7.63
2023-01-09T21:38:00.424Z,7.58
2023-01-09T21:40:51.473Z,7.55
2023-01-09T21:43:57.863Z,7.49
2023-01-09T21:46:55.786Z,7.48
2023-01-09T21:49:44.614Z,7.45
2023-01-09T21:52:36.012Z,7.41
2023-01-09T21:55:22.988Z,7.40
2023-01-09T21:58:10.579Z,7.34
2023-01-09T22:01:00.483Z,7.30
2023-01-09T22:03:48.302Z,7.24
2023-01-09T22:06:36.598Z,7.25
2023-01-09T22:09:23.467Z,7.22
2023-01-09T22:12:12.774Z,7.23
2023-01-09T22:14:59.300Z,7.18
2023-01-09T22:17:46.598Z,7.14
2023-01-09T22:20:33.751Z,7.12
2023-01-09T22:23:21.196Z,7.13
2023-01-09T22:26:10.502Z,7.07
2023-01-09T22:28:57.346Z,7.06
2023-01-09T22:31:45.671Z,7.04
2023-01-09T22:34:32.815Z,7.08
2023-01-09T22:37:20.184Z,7.05
2023-01-09T22:40:07.571Z,7.06
2023-01-09T22:42:55.226Z,7.04
2023-01-09T22:45:43.591Z,7.06
2023-01-09T22:48:36.728Z,7.02
2023-01-09T22:51:24.249Z,7.04
2023-01-09T22:54:11.085Z,7.08
2023-01-09T22:56:58.620Z,7.01
2023-01-09T22:59:46.243Z,6.98
2023-01-09T23:02:38.368Z,6.96
2023-01-09T23:05:25.096Z,6.99
2023-01-09T23:08:12.306Z,6.99
2023-01-09T23:11:00.412Z,6.98
2023-01-09T23:13:47.568Z,6.97
2023-01-09T23:16:34.410Z,6.92
2023-01-09T23:19:21.800Z,6.91
2023-01-09T23:22:08.618Z,6.92
2023-01-09T23:24:55.305Z,6.91
2023-01-09T23:27:43.469Z,6.89
2023-01-09T23:30:31.416Z,6.90
2023-01-09T23:33:18.523Z,6.91
2023-01-09T23:36:05.623Z,6.92
2023-01-09T23:38:52.942Z,6.93
2023-01-09T23:41:59.485Z,6.88
2023-01-09T23:44:48.079Z,6.88
2023-01-09T23:47:34.550Z,6.91
2023-01-09T23:50:21.321Z,6.92
2023-01-09T23:53:09.340Z,6.95
2023-01-09T23:55:55.754Z,6.91
2023-01-09T23:58:43.501Z,6.89
